This is the latest recevied weather packets stored in our database for station/object KC4JIR. If no packets are shown the sender has not sent any weather packets the latest 10 day(s).
| Time | Temp. | Humidity | Pressure | Rain* | Wind** | Luminosity | Snow |
|---|---|---|---|---|---|---|---|
| 1788472476 | 35.56° C | 58% | 1012 hPa | 0 mm | - | 216 W/m² | - |
| 1788472174 | 35.56° C | 58% | 1011.9 hPa | 0 mm | - | 75 W/m² | - |
| 1788471870 | 35.56° C | 58% | 1011.9 hPa | 0 mm | - | 75 W/m² | - |
| 1788471569 | 35.56° C | 57% | 1012.1 hPa | 0 mm | - | 74 W/m² | - |
| 1788471265 | 35.56° C | 55% | 1012.1 hPa | 0 mm | - | 300 W/m² | - |
| 1788470961 | 35.56° C | 56% | 1012.2 hPa | 0 mm | - | 314 W/m² | - |
| 1788470657 | 36.11° C | 52% | 1011.9 hPa | 0 mm | - | 332 W/m² | - |
| 1788470356 | 36.11° C | 52% | 1012.2 hPa | 0 mm | - | 350 W/m² | - |
| 1788470052 | 35.56° C | 52% | 1012 hPa | 0 mm | - | 371 W/m² | - |
| 1788469748 | 36.11° C | 52% | 1012.1 hPa | 0 mm | - | 288 W/m² | - |
| 1788469448 | 35.56° C | 53% | 1011.8 hPa | 0 mm | - | 309 W/m² | - |
| 1788469143 | 35.56° C | 54% | 1011.9 hPa | 0 mm | - | 400 W/m² | - |
| 1788468843 | 36.11° C | 54% | 1012 hPa | 0 mm | - | 367 W/m² | - |
| 1788468537 | 36.11° C | 55% | 1012.2 hPa | 0 mm | - | 381 W/m² | - |
| 1788468234 | 35.56° C | 55% | 1012.3 hPa | 0 mm | - | 409 W/m² | - |
| 1788467929 | 35.56° C | 53% | 1012.4 hPa | 0 mm | - | 498 W/m² | - |
| 1788467625 | 36.67° C | 53% | 1012.4 hPa | 0 mm | - | 511 W/m² | - |
| 1788467323 | 36.67° C | 50% | 1012.6 hPa | 0 mm | - | 506 W/m² | - |
| 1788467020 | 35.56° C | 55% | 1012.6 hPa | 0 mm | - | 476 W/m² | - |
| 1788466720 | 36.67° C | 56% | 1012.6 hPa | 0 mm | - | 498 W/m² | - |
| 1788466415 | 35.56° C | 58% | 1012.4 hPa | 0 mm | - | 522 W/m² | - |
| 1788466114 | 35.56° C | 56% | 1012.8 hPa | 0 mm | - | 547 W/m² | - |
| 1788465809 | 35.56° C | 56% | 1012.6 hPa | 0 mm | - | 547 W/m² | - |
| 1788465504 | 35° C | 57% | 1012.8 hPa | 0 mm | - | 540 W/m² | - |
| 1788465200 | 33.89° C | 61% | 1013.1 hPa | 0 mm | - | 534 W/m² | - |
* Rain latest hour (hover to see other rain measurements)
** Current wind speed in m/s (hover to see current wind gust speed)